Lady Nur — 3FFE2 — position and weather

sailwx.info

Track history (hours):
 
Tides and Currents Weather Stations Pressure Air Temp Water Temp Dewpoint Dewpoint Depression Visibility Wind Speed Wind Dir Waves Ship Positions

Lady Nur

Last reported at 2017-Mar-19 01:30 UTC. Time now 2017-Mar-26 15:20 UTC.
Position N 43°53' W 007°34'.

Length 82 m; draft 5.5 m.

Type: Cargo ship. MMSI: 373237000.

Date/timePositionNaut miles runAvg speedWind from/ knotsBaromVisibWave heightAir tempDewpointWater temp
2017-Mar-19 01:30N 43°53' W 007°34'284 5.9
2017-Mar-17 01:33N 39°28' W 009°49'8 7.7
2017-Mar-17 00:33N 39°21' W 009°49'8 7.8
2017-Mar-16 23:34N 39°13' W 009°49'8 7.7
2017-Mar-16 22:34N 39°05' W 009°49'8 7.7
2017-Mar-16 21:34N 38°58' W 009°50'8 7.8
2017-Mar-16 20:34N 38°50' W 009°50'8 7.7
2017-Mar-16 19:34N 38°42' W 009°49'8 7.9
2017-Mar-16 18:33N 38°34' W 009°48'8 8.1
2017-Mar-16 17:33N 38°26' W 009°45'8 8.3
2017-Mar-16 16:34N 38°18' W 009°42'9 8.3
2017-Mar-16 15:29N 38°10' W 009°40'  
2017-Mar-09 21:20N 35°37' W 008°58'7 8.9
2017-Mar-09 20:33N 35°44' W 008°59'9 8.9
2017-Mar-09 19:33N 35°53' W 009°00'9 8.9
2017-Mar-09 18:33N 36°01' W 009°01'28 8.2
2017-Mar-09 15:05N 36°30' W 009°05'12 7.4
2017-Mar-09 13:30N 36°33' W 009°19'7 7.4
2017-Mar-09 12:33N 36°38' W 009°25'44 7.4
2017-Mar-09 06:33N 37°22' W 009°34'17 8.7
2017-Mar-09 04:33N 37°39' W 009°32'9 8.9
2017-Mar-09 03:33N 37°48' W 009°31'9 8.7
2017-Mar-09 02:33N 37°57' W 009°30'8 8.4
2017-Mar-09 01:33N 38°05' W 009°28'  
Track history (hours):
 
Tides and Currents Weather Stations Pressure Air Temp Water Temp Dewpoint Dewpoint Depression Visibility Wind Speed Wind Dir Waves Ship Positions

Lady Nur

Last reported at 2017-Mar-19 01:30 UTC. Time now 2017-Mar-26 15:20 UTC.
Position N 43°53' W 007°34'.

Length 82 m; draft 5.5 m.

Type: Cargo ship. MMSI: 373237000.

Date/timePositionNaut miles runAvg speedWind from/ knotsBaromVisibWave heightAir tempDewpointWater temp
2017-Mar-19 01:30N 43°53' W 007°34'284 5.9
2017-Mar-17 01:33N 39°28' W 009°49'8 7.7
2017-Mar-17 00:33N 39°21' W 009°49'8 7.8
2017-Mar-16 23:34N 39°13' W 009°49'8 7.7
2017-Mar-16 22:34N 39°05' W 009°49'8 7.7
2017-Mar-16 21:34N 38°58' W 009°50'8 7.8
2017-Mar-16 20:34N 38°50' W 009°50'8 7.7
2017-Mar-16 19:34N 38°42' W 009°49'8 7.9
2017-Mar-16 18:33N 38°34' W 009°48'8 8.1
2017-Mar-16 17:33N 38°26' W 009°45'8 8.3
2017-Mar-16 16:34N 38°18' W 009°42'9 8.3
2017-Mar-16 15:29N 38°10' W 009°40'  
2017-Mar-09 21:20N 35°37' W 008°58'7 8.9
2017-Mar-09 20:33N 35°44' W 008°59'9 8.9
2017-Mar-09 19:33N 35°53' W 009°00'9 8.9
2017-Mar-09 18:33N 36°01' W 009°01'28 8.2
2017-Mar-09 15:05N 36°30' W 009°05'12 7.4
2017-Mar-09 13:30N 36°33' W 009°19'7 7.4
2017-Mar-09 12:33N 36°38' W 009°25'44 7.4
2017-Mar-09 06:33N 37°22' W 009°34'17 8.7
2017-Mar-09 04:33N 37°39' W 009°32'9 8.9
2017-Mar-09 03:33N 37°48' W 009°31'9 8.7
2017-Mar-09 02:33N 37°57' W 009°30'8 8.4
2017-Mar-09 01:33N 38°05' W 009°28'  

Dump ship's entire track history